createdAt,value
2022-10-11T00:02:20.316Z,1.60
2022-10-11T00:04:47.733Z,1.42
2022-10-11T00:07:15.115Z,1.48
2022-10-11T00:09:42.581Z,1.23
2022-10-11T00:12:12.457Z,1.30
2022-10-11T00:14:39.937Z,1.30
2022-10-11T00:17:08.197Z,1.38
2022-10-11T00:19:35.518Z,1.55
2022-10-11T00:22:02.835Z,1.38
2022-10-11T00:24:30.112Z,1.30
2022-10-11T00:26:57.395Z,1.50
2022-10-11T00:29:24.719Z,1.38
2022-10-11T00:31:52.009Z,1.60
2022-10-11T00:34:19.312Z,1.27
2022-10-11T00:36:46.807Z,1.45
2022-10-11T00:39:14.606Z,1.60
2022-10-11T00:41:42.507Z,1.40
2022-10-11T00:44:18.839Z,1.42
2022-10-11T00:46:54.983Z,1.48
2022-10-11T00:49:37.705Z,1.42
2022-10-11T00:52:14.641Z,1.27
2022-10-11T00:54:44.015Z,1.70
2022-10-11T00:57:14.327Z,1.75
2022-10-11T00:59:42.914Z,1.20
2022-10-11T01:02:13.653Z,1.40
2022-10-11T01:04:43.831Z,1.60
2022-10-11T01:07:11.714Z,1.45
2022-10-11T01:09:39.139Z,1.20
2022-10-11T01:12:11.878Z,1.70
2022-10-11T01:14:51.397Z,1.40
2022-10-11T01:17:24.402Z,1.45
2022-10-11T01:20:03.761Z,1.20
2022-10-11T01:22:49.751Z,1.60
2022-10-11T01:25:35.744Z,1.60
2022-10-11T01:28:11.272Z,1.50
2022-10-11T01:30:39.148Z,1.48
2022-10-11T01:33:12.125Z,1.90
2022-10-11T01:35:42.394Z,1.60
2022-10-11T01:38:14.386Z,1.40
2022-10-11T01:40:47.966Z,1.63
2022-10-11T01:43:16.415Z,1.40
2022-10-11T01:45:44.157Z,1.63
2022-10-11T01:48:13.111Z,1.70
2022-10-11T01:50:40.368Z,1.60
2022-10-11T01:53:23.742Z,1.70
2022-10-11T01:55:52.173Z,1.38
2022-10-11T01:58:19.394Z,1.60
2022-10-11T02:00:55.406Z,1.80
2022-10-11T02:03:22.650Z,1.60
2022-10-11T02:05:56.097Z,1.48
2022-10-11T02:08:23.333Z,1.80
2022-10-11T02:10:53.634Z,1.92
2022-10-11T02:13:29.282Z,1.88
2022-10-11T02:15:59.074Z,1.58
2022-10-11T02:18:32.214Z,1.80
2022-10-11T02:21:00.958Z,1.73
2022-10-11T02:23:30.711Z,1.90
2022-10-11T02:25:58.549Z,1.60
2022-10-11T02:28:30.101Z,1.80
2022-10-11T02:30:58.618Z,1.98
2022-10-11T02:33:29.075Z,2.00
2022-10-11T02:36:00.135Z,1.80
2022-10-11T02:38:30.900Z,2.00
2022-10-11T02:41:02.851Z,1.77
2022-10-11T02:43:42.386Z,2.00
2022-10-11T02:46:10.535Z,1.85
2022-10-11T02:48:38.307Z,2.13
2022-10-11T02:51:05.582Z,1.92
2022-10-11T02:53:32.907Z,2.10
2022-10-11T02:56:00.158Z,2.30
2022-10-11T02:58:27.458Z,2.08
2022-10-11T03:00:54.779Z,2.28
2022-10-11T03:03:22.039Z,2.45
2022-10-11T03:05:49.382Z,2.00
2022-10-11T03:08:17.261Z,2.05
2022-10-11T03:10:44.602Z,2.20
2022-10-11T03:13:15.971Z,1.92
2022-10-11T03:15:49.423Z,2.47
2022-10-11T03:18:20.285Z,2.22
2022-10-11T03:20:47.634Z,2.10
2022-10-11T03:23:14.937Z,1.88
2022-10-11T03:25:42.187Z,2.38
2022-10-11T03:28:09.502Z,2.55
2022-10-11T03:30:36.838Z,2.40
2022-10-11T03:33:04.382Z,2.20
2022-10-11T03:35:31.636Z,2.33
2022-10-11T03:37:58.935Z,2.28
2022-10-11T03:40:26.215Z,2.08
2022-10-11T03:42:56.349Z,2.72
2022-10-11T03:45:23.806Z,2.55
2022-10-11T03:47:51.050Z,2.28
2022-10-11T03:50:18.406Z,2.35
2022-10-11T03:52:45.662Z,2.60
2022-10-11T03:55:12.917Z,2.42
2022-10-11T03:57:40.161Z,2.58
2022-10-11T04:00:07.822Z,2.78
2022-10-11T04:02:39.072Z,2.47
2022-10-11T04:05:07.162Z,2.70
2022-10-11T04:07:34.579Z,2.45
2022-10-11T04:10:01.803Z,2.53
2022-10-11T04:12:29.077Z,2.60
2022-10-11T04:14:56.309Z,2.80
2022-10-11T04:17:23.596Z,2.45
2022-10-11T04:19:50.830Z,2.80
2022-10-11T04:22:18.213Z,2.40
2022-10-11T04:24:45.450Z,2.90
2022-10-11T04:27:12.681Z,3.10
2022-10-11T04:29:39.957Z,2.60
2022-10-11T04:32:07.326Z,2.58
2022-10-11T04:34:34.611Z,2.47
2022-10-11T04:37:01.880Z,2.83
2022-10-11T04:39:29.142Z,2.53
2022-10-11T04:41:56.409Z,2.72
2022-10-11T04:44:23.838Z,2.72
2022-10-11T04:46:51.169Z,2.63
2022-10-11T04:49:18.433Z,2.85
2022-10-11T04:51:45.689Z,2.67
2022-10-11T04:54:12.969Z,3.00
2022-10-11T04:56:40.290Z,2.80
2022-10-11T04:59:07.570Z,2.75
2022-10-11T05:01:34.946Z,2.60
2022-10-11T05:04:02.303Z,2.70
2022-10-11T05:06:29.626Z,3.17
2022-10-11T05:09:04.415Z,2.88
2022-10-11T05:11:31.666Z,2.70
2022-10-11T05:14:00.440Z,2.75
2022-10-11T05:16:27.904Z,2.78
2022-10-11T05:18:55.166Z,2.75
2022-10-11T05:21:23.837Z,2.88
2022-10-11T05:23:51.566Z,2.88
2022-10-11T05:26:19.649Z,2.70
2022-10-11T05:28:47.445Z,3.33
2022-10-11T05:31:15.191Z,3.17
2022-10-11T05:33:42.975Z,3.05
2022-10-11T05:36:10.592Z,2.60
2022-10-11T05:38:38.466Z,2.70
2022-10-11T05:41:06.447Z,3.05
2022-10-11T05:43:33.910Z,3.28
2022-10-11T05:46:01.254Z,2.80
2022-10-11T05:48:28.713Z,3.08
2022-10-11T05:51:03.093Z,3.13
2022-10-11T05:53:30.516Z,3.33
2022-10-11T05:55:58.052Z,2.95
2022-10-11T05:58:25.580Z,3.22
2022-10-11T06:00:52.922Z,3.08
2022-10-11T06:03:21.146Z,2.90
2022-10-11T06:05:49.735Z,3.58
2022-10-11T06:08:19.415Z,3.20
2022-10-11T06:10:46.662Z,3.67
2022-10-11T06:13:13.936Z,3.30
2022-10-11T06:15:41.476Z,3.53
2022-10-11T06:18:08.782Z,3.88
2022-10-11T06:20:36.261Z,3.92
2022-10-11T06:23:03.521Z,3.35
2022-10-11T06:25:30.824Z,3.55
2022-10-11T06:27:58.079Z,3.50
2022-10-11T06:30:25.338Z,3.50
2022-10-11T06:32:52.591Z,4.05
2022-10-11T06:35:19.915Z,4.43
2022-10-11T06:37:47.230Z,3.92
2022-10-11T06:40:14.462Z,4.53
2022-10-11T06:42:41.752Z,4.05
2022-10-11T06:45:09.272Z,3.70
2022-10-11T06:47:36.553Z,4.65
2022-10-11T06:50:04.880Z,4.38
2022-10-11T06:52:32.147Z,4.30
2022-10-11T06:54:59.394Z,4.43
2022-10-11T06:57:26.763Z,4.65
2022-10-11T06:59:54.022Z,4.65
2022-10-11T07:02:21.262Z,5.03
2022-10-11T07:04:48.528Z,4.13
2022-10-11T07:07:15.868Z,4.20
2022-10-11T07:09:43.078Z,5.05
2022-10-11T07:12:10.370Z,4.82
2022-10-11T07:14:37.628Z,4.55
2022-10-11T07:17:05.211Z,4.47
2022-10-11T07:19:32.450Z,4.40
2022-10-11T07:21:59.770Z,4.28
2022-10-11T07:24:27.118Z,5.00
2022-10-11T07:26:54.337Z,5.00
2022-10-11T07:29:21.734Z,4.65
2022-10-11T07:31:49.060Z,5.05
2022-10-11T07:34:16.340Z,5.20
2022-10-11T07:36:43.599Z,4.28
2022-10-11T07:39:11.082Z,5.72
2022-10-11T07:41:43.290Z,4.63
2022-10-11T07:44:13.013Z,5.00
2022-10-11T07:46:40.232Z,5.05
2022-10-11T07:49:07.501Z,4.93
2022-10-11T07:51:34.902Z,5.13
2022-10-11T07:54:07.284Z,4.90
2022-10-11T07:56:34.919Z,5.63
2022-10-11T07:59:06.410Z,5.32
2022-10-11T08:01:33.965Z,5.28
2022-10-11T08:04:01.305Z,5.80
2022-10-11T08:06:31.830Z,6.03
2022-10-11T08:09:00.218Z,5.80
2022-10-11T08:11:29.225Z,5.90
2022-10-11T08:13:56.582Z,5.93
2022-10-11T08:16:24.007Z,5.75
2022-10-11T08:18:51.520Z,6.05
2022-10-11T08:21:19.644Z,5.72
2022-10-11T08:23:46.980Z,6.60
2022-10-11T08:26:14.684Z,5.95
2022-10-11T08:28:42.012Z,5.80
2022-10-11T08:31:12.645Z,5.88
2022-10-11T08:33:40.142Z,6.38
2022-10-11T08:36:08.677Z,6.25
2022-10-11T08:38:37.273Z,6.07
2022-10-11T08:41:15.356Z,6.25
2022-10-11T08:43:48.004Z,6.75
2022-10-11T08:46:16.096Z,6.93
2022-10-11T08:48:45.766Z,6.40
2022-10-11T08:51:19.788Z,6.63
2022-10-11T08:53:49.917Z,6.47
2022-10-11T08:56:17.452Z,7.40
2022-10-11T08:58:48.210Z,6.13
2022-10-11T09:01:18.972Z,6.93
2022-10-11T09:03:47.693Z,7.13
2022-10-11T09:06:26.988Z,7.00
2022-10-11T09:09:06.316Z,7.35
2022-10-11T09:11:36.537Z,7.13
2022-10-11T09:14:03.767Z,6.80
2022-10-11T09:16:49.519Z,7.32
2022-10-11T09:19:19.742Z,7.10
2022-10-11T09:22:01.911Z,8.03
2022-10-11T09:25:01.378Z,6.93
2022-10-11T09:27:50.262Z,7.10
2022-10-11T09:30:17.320Z,8.27
2022-10-11T09:32:52.089Z,8.68
2022-10-11T09:35:23.190Z,9.82
2022-10-11T09:37:56.718Z,9.95
2022-10-11T09:40:26.966Z,9.90
2022-10-11T09:42:54.207Z,10.00
2022-10-11T09:45:22.410Z,9.05
2022-10-11T09:47:50.367Z,8.93
2022-10-11T09:50:20.499Z,11.18
2022-10-11T09:53:05.470Z,9.68
2022-10-11T09:55:45.035Z,8.60
2022-10-11T09:58:27.439Z,7.70
2022-10-11T10:01:07.634Z,7.70
2022-10-11T10:03:36.527Z,6.70
2022-10-11T10:06:22.347Z,6.97
2022-10-11T10:08:50.745Z,6.88
2022-10-11T10:11:19.275Z,6.88
2022-10-11T10:13:51.960Z,6.63
2022-10-11T10:16:37.676Z,7.63
2022-10-11T10:19:13.953Z,8.57
2022-10-11T10:21:48.741Z,8.52
2022-10-11T10:24:18.926Z,8.60
2022-10-11T10:27:04.749Z,8.32
2022-10-11T10:29:32.030Z,8.55
2022-10-11T10:32:18.969Z,7.57
2022-10-11T10:35:04.710Z,7.60
2022-10-11T10:38:07.714Z,7.00
2022-10-11T10:40:37.675Z,6.28
2022-10-11T10:43:04.989Z,6.35
2022-10-11T10:45:43.223Z,5.90
2022-10-11T10:48:10.786Z,7.10
2022-10-11T10:51:10.656Z,5.75
2022-10-11T10:53:43.142Z,6.55
2022-10-11T10:56:16.316Z,7.07
2022-10-11T10:58:52.673Z,6.60
2022-10-11T11:01:25.894Z,5.70
2022-10-11T11:04:08.302Z,6.53
2022-10-11T11:06:36.628Z,5.97
2022-10-11T11:09:19.226Z,6.18
2022-10-11T11:11:52.308Z,6.18
2022-10-11T11:14:24.434Z,6.38
2022-10-11T11:16:59.050Z,5.57
2022-10-11T11:19:26.309Z,5.60
2022-10-11T11:21:56.677Z,5.13
2022-10-11T11:24:42.426Z,3.70
2022-10-11T11:27:12.700Z,3.95
2022-10-11T11:29:55.671Z,3.63
2022-10-11T11:32:23.172Z,3.10
2022-10-11T11:35:13.690Z,2.65
2022-10-11T11:37:42.663Z,2.80
2022-10-11T11:40:20.714Z,2.63
2022-10-11T11:43:01.118Z,2.55
2022-10-11T11:45:30.270Z,2.40
2022-10-11T11:48:03.378Z,2.20
2022-10-11T11:50:34.392Z,1.60
2022-10-11T11:53:05.123Z,1.50
2022-10-11T11:55:51.998Z,1.20
2022-10-11T11:58:37.479Z,1.83
2022-10-11T12:01:17.126Z,1.10
2022-10-11T12:03:48.581Z,1.42
2022-10-11T12:06:16.099Z,1.30
2022-10-11T12:08:44.959Z,1.15
2022-10-11T12:11:41.369Z,0.93
2022-10-11T12:14:19.694Z,1.40
2022-10-11T12:17:06.664Z,1.02
2022-10-11T12:19:33.999Z,1.02
2022-10-11T12:22:21.540Z,1.00
2022-10-11T12:24:55.344Z,1.08
2022-10-11T12:27:41.216Z,1.27
2022-10-11T12:30:27.104Z,1.02
2022-10-11T12:33:04.090Z,1.33
2022-10-11T12:35:31.659Z,1.50
2022-10-11T12:38:14.554Z,1.27
2022-10-11T12:40:42.482Z,1.42
2022-10-11T12:43:24.257Z,1.73
2022-10-11T12:45:51.740Z,1.58
2022-10-11T12:48:19.009Z,1.30
2022-10-11T12:51:02.829Z,1.30
2022-10-11T12:53:50.641Z,1.17
2022-10-11T12:56:42.174Z,1.70
2022-10-11T12:59:15.336Z,1.15
2022-10-11T13:01:53.656Z,1.52
2022-10-11T13:04:23.131Z,1.20
2022-10-11T13:06:54.700Z,1.30
2022-10-11T13:09:31.143Z,1.60
2022-10-11T13:12:15.461Z,1.40
2022-10-11T13:14:44.104Z,1.00
2022-10-11T13:17:22.069Z,1.77
2022-10-11T13:19:52.576Z,1.75
2022-10-11T13:22:22.010Z,1.60
2022-10-11T13:24:49.771Z,1.73
2022-10-11T13:27:20.048Z,1.83
2022-10-11T13:29:47.596Z,1.73
2022-10-11T13:32:16.618Z,1.67
2022-10-11T13:34:46.365Z,1.75
2022-10-11T13:37:18.290Z,1.70
2022-10-11T13:39:46.586Z,2.20
2022-10-11T13:42:15.149Z,1.88
2022-10-11T13:44:43.991Z,2.05
2022-10-11T13:47:15.160Z,2.22
2022-10-11T13:52:21.528Z,2.05
2022-10-11T13:55:01.312Z,1.80
2022-10-11T13:57:34.599Z,2.30
2022-10-11T14:00:04.964Z,2.28
2022-10-11T14:02:33.508Z,1.92
2022-10-11T14:05:00.898Z,1.83
2022-10-11T14:07:28.103Z,1.48
2022-10-11T14:09:56.063Z,2.17
2022-10-11T14:12:35.591Z,1.98
2022-10-11T14:15:21.619Z,1.98
2022-10-11T14:17:49.198Z,1.98
2022-10-11T14:20:18.264Z,2.17
2022-10-11T14:22:45.523Z,1.95
2022-10-11T14:25:14.184Z,2.53
2022-10-11T14:27:42.697Z,2.22
2022-10-11T14:30:25.470Z,2.35
2022-10-11T14:32:54.677Z,2.47
2022-10-11T14:35:24.118Z,2.95
2022-10-11T14:37:51.403Z,2.38
2022-10-11T14:40:20.465Z,2.53
2022-10-11T14:42:47.694Z,2.40
2022-10-11T14:45:15.018Z,2.13
2022-10-11T14:47:43.297Z,2.53
2022-10-11T14:50:25.735Z,2.38
2022-10-11T14:52:52.978Z,2.40
2022-10-11T14:55:20.268Z,2.00
2022-10-11T14:57:47.579Z,2.38
2022-10-11T15:00:20.460Z,2.20
2022-10-11T15:02:48.000Z,2.17
2022-10-11T15:05:15.370Z,2.75
2022-10-11T15:07:42.676Z,2.67
2022-10-11T15:10:16.071Z,2.60
2022-10-11T15:12:43.305Z,2.90
2022-10-11T15:15:14.735Z,2.22
2022-10-11T15:17:45.466Z,2.58
2022-10-11T15:20:20.798Z,2.45
2022-10-11T15:22:49.461Z,2.70
2022-10-11T15:25:17.359Z,2.83
2022-10-11T15:27:44.624Z,3.10
2022-10-11T15:30:15.161Z,2.60
2022-10-11T15:32:42.444Z,2.25
2022-10-11T15:35:09.822Z,2.45
2022-10-11T15:37:37.552Z,2.47
2022-10-11T15:40:12.171Z,2.47
2022-10-11T15:42:39.551Z,2.10
2022-10-11T15:45:06.921Z,2.45
2022-10-11T15:47:34.440Z,2.40
2022-10-11T15:50:01.735Z,2.53
2022-10-11T15:52:29.008Z,2.80
2022-10-11T15:54:56.229Z,2.75
2022-10-11T15:57:23.547Z,2.30
2022-10-11T15:59:50.871Z,2.60
2022-10-11T16:02:18.084Z,2.63
2022-10-11T16:04:45.345Z,2.45
2022-10-11T16:07:12.557Z,2.90
2022-10-11T16:09:39.865Z,2.50
2022-10-11T16:12:07.166Z,2.25
2022-10-11T16:14:34.445Z,2.80
2022-10-11T16:17:03.432Z,2.55
2022-10-11T16:19:30.675Z,2.88
2022-10-11T16:21:57.931Z,2.75
2022-10-11T16:24:25.279Z,3.42
2022-10-11T16:26:52.515Z,3.28
2022-10-11T16:29:19.770Z,3.42
2022-10-11T16:31:47.033Z,3.00
2022-10-11T16:34:14.342Z,2.75
2022-10-11T16:36:42.895Z,3.45
2022-10-11T16:39:13.466Z,3.13
2022-10-11T16:41:40.824Z,3.47
2022-10-11T16:44:08.559Z,2.53
2022-10-11T16:46:35.915Z,2.83
2022-10-11T16:49:03.815Z,3.13
2022-10-11T16:51:31.071Z,4.40
2022-10-11T16:53:58.561Z,3.03
2022-10-11T16:56:25.815Z,3.10
2022-10-11T16:58:54.243Z,2.97
2022-10-11T17:01:24.008Z,3.13
2022-10-11T17:03:51.504Z,2.80
2022-10-11T17:06:19.473Z,2.30
2022-10-11T17:08:47.129Z,2.80
2022-10-11T17:11:14.640Z,3.30
2022-10-11T17:13:41.897Z,3.40
2022-10-11T17:16:09.498Z,3.20
2022-10-11T17:18:36.998Z,3.22
2022-10-11T17:21:04.762Z,2.70
2022-10-11T17:23:32.032Z,3.30
2022-10-11T17:25:59.491Z,3.85
2022-10-11T17:28:26.975Z,3.10
2022-10-11T17:30:57.564Z,3.42
2022-10-11T17:33:28.701Z,3.53
2022-10-11T17:38:27.331Z,3.28
2022-10-11T17:41:01.471Z,3.40
2022-10-11T17:43:28.910Z,3.75
2022-10-11T17:46:00.735Z,3.83
2022-10-11T17:48:28.416Z,3.70
2022-10-11T17:50:56.026Z,4.50
2022-10-11T17:53:23.369Z,4.35
2022-10-11T17:55:50.690Z,5.03
2022-10-11T17:58:18.748Z,4.47
2022-10-11T18:00:46.045Z,5.78
2022-10-11T18:03:13.421Z,4.55
2022-10-11T18:05:41.083Z,4.90
2022-10-11T18:08:09.843Z,4.68
2022-10-11T18:10:37.766Z,4.75
2022-10-11T18:13:06.861Z,4.13
2022-10-11T18:15:34.720Z,4.53
2022-10-11T18:18:04.677Z,4.82
2022-10-11T18:20:32.409Z,4.20
2022-10-11T18:22:59.893Z,5.00
2022-10-11T18:25:27.192Z,4.40
2022-10-11T18:27:54.474Z,4.28
2022-10-11T18:30:21.729Z,4.22
2022-10-11T18:32:49.019Z,4.32
2022-10-11T18:35:16.381Z,5.00
2022-10-11T18:37:43.708Z,5.18
2022-10-11T18:40:11.336Z,5.20
2022-10-11T18:42:38.583Z,5.05
2022-10-11T18:45:06.075Z,4.57
2022-10-11T18:47:33.365Z,4.63
2022-10-11T18:50:00.660Z,4.57
2022-10-11T18:52:28.021Z,4.65
2022-10-11T18:54:55.331Z,5.75
2022-10-11T18:57:24.187Z,5.25
2022-10-11T18:59:51.484Z,5.03
2022-10-11T19:02:18.844Z,5.20
2022-10-11T19:04:52.408Z,11.85
2022-10-11T19:07:20.295Z,11.32
2022-10-11T19:09:47.607Z,4.38
2022-10-11T19:12:15.939Z,5.18
2022-10-11T19:14:43.379Z,4.70
2022-10-11T19:17:12.446Z,4.00
2022-10-11T19:19:39.719Z,5.50
2022-10-11T19:22:07.049Z,4.47
2022-10-11T19:24:43.753Z,4.68
2022-10-11T19:27:11.167Z,5.25
2022-10-11T19:29:38.847Z,3.88
2022-10-11T19:32:06.401Z,4.45
2022-10-11T19:34:33.804Z,3.70
2022-10-11T19:37:01.353Z,3.53
2022-10-11T19:39:29.586Z,4.20
2022-10-11T19:41:56.908Z,3.50
2022-10-11T19:44:24.171Z,4.07
2022-10-11T19:46:52.751Z,4.20
2022-10-11T19:49:22.749Z,4.32
2022-10-11T19:51:50.165Z,4.93
2022-10-11T19:54:17.944Z,5.00
2022-10-11T19:56:45.477Z,4.43
2022-10-11T19:59:13.378Z,4.50
2022-10-11T20:01:41.452Z,4.55
2022-10-11T20:04:22.688Z,4.03
2022-10-11T20:06:58.231Z,4.57
2022-10-11T20:09:30.403Z,4.00
2022-10-11T20:11:58.308Z,4.45
2022-10-11T20:14:26.061Z,3.70
2022-10-11T20:16:53.427Z,3.70
2022-10-11T20:19:26.261Z,4.18
2022-10-11T20:21:55.194Z,4.00
2022-10-11T20:24:22.609Z,4.07
2022-10-11T20:26:49.897Z,3.72
2022-10-11T20:29:17.175Z,4.10
2022-10-11T20:31:44.456Z,3.40
2022-10-11T20:34:12.140Z,4.28
2022-10-11T20:36:39.455Z,3.78
2022-10-11T20:39:06.941Z,3.60
2022-10-11T20:41:40.037Z,3.75
2022-10-11T20:44:07.743Z,3.50
2022-10-11T20:46:36.241Z,3.35
2022-10-11T20:49:05.079Z,3.45
2022-10-11T20:51:33.056Z,3.15
2022-10-11T20:54:01.029Z,3.38
2022-10-11T20:56:29.917Z,3.28
2022-10-11T20:58:58.373Z,3.35
2022-10-11T21:01:30.375Z,3.05
2022-10-11T21:03:58.199Z,4.03
2022-10-11T21:06:25.790Z,3.58
2022-10-11T21:08:54.823Z,3.28
2022-10-11T21:11:22.066Z,2.90
2022-10-11T21:13:49.335Z,3.03
2022-10-11T21:16:17.167Z,3.08
2022-10-11T21:18:44.433Z,3.42
2022-10-11T21:21:13.028Z,3.13
2022-10-11T21:23:40.441Z,3.30
2022-10-11T21:26:08.878Z,3.42
2022-10-11T21:28:36.379Z,7.25
2022-10-11T21:31:04.710Z,2.90
2022-10-11T21:33:32.250Z,3.05
2022-10-11T21:36:00.204Z,2.83
2022-10-11T21:38:27.478Z,2.72
2022-10-11T21:40:54.798Z,2.45
2022-10-11T21:43:22.207Z,2.45
2022-10-11T21:45:49.977Z,3.33
2022-10-11T21:48:17.199Z,12.90
2022-10-11T21:50:44.452Z,2.58
2022-10-11T21:53:11.767Z,2.40
2022-10-11T21:55:39.296Z,2.17
2022-10-11T21:58:07.140Z,2.30
2022-10-11T22:00:34.430Z,2.70
2022-10-11T22:03:01.803Z,2.17
2022-10-11T22:05:29.034Z,2.63
2022-10-11T22:07:56.259Z,2.35
2022-10-11T22:10:23.695Z,2.30
2022-10-11T22:12:50.970Z,2.17
2022-10-11T22:15:18.259Z,2.53
2022-10-11T22:17:45.525Z,2.10
2022-10-11T22:20:12.766Z,2.45
2022-10-11T22:22:40.069Z,2.63
2022-10-11T22:25:07.515Z,2.40
2022-10-11T22:27:34.783Z,2.33
2022-10-11T22:30:02.044Z,2.17
2022-10-11T22:32:29.549Z,2.03
2022-10-11T22:34:56.776Z,2.00
2022-10-11T22:37:24.083Z,1.80
2022-10-11T22:39:51.314Z,1.73
2022-10-11T22:42:18.608Z,1.80
2022-10-11T22:44:45.885Z,2.58
2022-10-11T22:47:13.245Z,1.98
2022-10-11T22:49:40.474Z,2.05
2022-10-11T22:52:07.731Z,1.88
2022-10-11T22:54:34.936Z,2.42
2022-10-11T22:57:02.189Z,1.65
2022-10-11T22:59:29.508Z,2.10
2022-10-11T23:01:56.749Z,1.80
2022-10-11T23:04:23.975Z,1.58
2022-10-11T23:06:51.227Z,2.03
2022-10-11T23:09:18.503Z,2.05
2022-10-11T23:11:45.754Z,1.77
2022-10-11T23:14:13.058Z,1.70
2022-10-11T23:16:40.268Z,1.70
2022-10-11T23:19:07.474Z,2.00
2022-10-11T23:21:34.768Z,2.17
2022-10-11T23:24:02.021Z,1.98
2022-10-11T23:26:29.353Z,1.90
2022-10-11T23:28:57.397Z,1.70
2022-10-11T23:31:24.663Z,2.08
2022-10-11T23:33:51.923Z,1.95
2022-10-11T23:36:20.348Z,1.88
2022-10-11T23:38:55.403Z,1.83
2022-10-11T23:41:23.303Z,1.88
2022-10-11T23:43:50.648Z,1.80
2022-10-11T23:46:17.908Z,2.58
2022-10-11T23:48:45.257Z,2.33
2022-10-11T23:51:12.628Z,1.73
2022-10-11T23:53:39.951Z,2.28
2022-10-11T23:56:07.469Z,1.95
2022-10-11T23:58:34.938Z,2.58
